METAR Data
IDs: Format: Raw Decoded Include TAF

Data at: 0159 UTC 01 Mar 2021

K4I3 010155Z AUTO 22006KT 10SM SCT011 BKN019 OVC024 13/12 A2977 RMK AO2 P0001